createdAt,value
2023-05-05T00:00:07.000Z,467.5295715332031
2023-05-05T00:01:09.000Z,465.8255615234375
2023-05-05T00:02:11.000Z,466.7654113769531
2023-05-05T00:03:13.000Z,464.77490234375
2023-05-05T00:04:15.000Z,468.2680358886719
2023-05-05T00:05:17.000Z,471.73541259765625
2023-05-05T00:06:20.000Z,483.77557373046875
2023-05-05T00:07:22.000Z,496.6640930175781
2023-05-05T00:08:24.000Z,510.9479064941406
2023-05-05T00:09:26.000Z,516.8018188476562
2023-05-05T00:10:28.000Z,519.850830078125
2023-05-05T00:11:30.000Z,521.2816162109375
2023-05-05T00:12:32.000Z,523.6261596679688
2023-05-05T00:13:35.000Z,523.4992065429688
2023-05-05T00:14:37.000Z,523.8804931640625
2023-05-05T00:15:39.000Z,522.6378173828125
2023-05-05T00:16:41.000Z,522.0908203125
2023-05-05T00:17:43.000Z,523.6957397460938
2023-05-05T00:18:45.000Z,526.0350952148438
2023-05-05T00:19:47.000Z,524.6986083984375
2023-05-05T00:20:50.000Z,525.0439453125
2023-05-05T00:21:52.000Z,527.5855712890625
2023-05-05T00:22:54.000Z,527.8417358398438
2023-05-05T00:23:56.000Z,526.9554443359375
2023-05-05T00:24:58.000Z,528.9351806640625
2023-05-05T00:26:00.000Z,529.0709228515625
2023-05-05T00:27:02.000Z,529.5243530273438
2023-05-05T00:28:04.000Z,533.104736328125
2023-05-05T00:29:07.000Z,533.93701171875
2023-05-05T00:30:09.000Z,531.3521118164062
2023-05-05T00:31:11.000Z,529.84033203125
2023-05-05T00:32:13.000Z,529.4347534179688
2023-05-05T00:33:15.000Z,523.9288940429688
2023-05-05T00:34:17.000Z,515.0513305664062
2023-05-05T00:35:19.000Z,510.8812255859375
2023-05-05T00:36:22.000Z,511.7178649902344
2023-05-05T00:37:24.000Z,514.5570678710938
2023-05-05T00:38:26.000Z,521.6173706054688
2023-05-05T00:39:28.000Z,528.0154418945312
2023-05-05T00:40:30.000Z,529.0191040039062
2023-05-05T00:41:32.000Z,532.4495239257812
2023-05-05T00:42:34.000Z,532.8388671875
2023-05-05T00:43:37.000Z,530.2384033203125
2023-05-05T00:44:39.000Z,528.6735229492188
2023-05-05T00:45:41.000Z,530.2154541015625
2023-05-05T00:46:43.000Z,531.2199096679688
2023-05-05T00:47:45.000Z,533.6995239257812
2023-05-05T00:48:47.000Z,531.435302734375
2023-05-05T00:49:50.000Z,526.4783325195312
2023-05-05T00:50:52.000Z,525.57275390625
2023-05-05T00:51:54.000Z,526.7196044921875
2023-05-05T00:52:56.000Z,528.0881958007812
2023-05-05T00:53:58.000Z,526.964111328125
2023-05-05T00:55:00.000Z,527.4302368164062
2023-05-05T00:56:03.000Z,531.4896850585938
2023-05-05T00:57:05.000Z,532.7828979492188
2023-05-05T00:58:07.000Z,531.9630126953125
2023-05-05T00:59:09.000Z,530.6937255859375
2023-05-05T01:00:11.000Z,528.814208984375
2023-05-05T01:01:13.000Z,523.310791015625
2023-05-05T01:02:15.000Z,522.5762939453125
2023-05-05T01:03:18.000Z,523.4507446289062
2023-05-05T01:04:20.000Z,521.0927734375
2023-05-05T01:05:22.000Z,518.9755249023438
2023-05-05T01:06:24.000Z,515.607177734375
2023-05-05T01:07:26.000Z,512.401123046875
2023-05-05T01:08:28.000Z,509.2030029296875
2023-05-05T01:09:31.000Z,506.1646728515625
2023-05-05T01:10:33.000Z,503.3329162597656
2023-05-05T01:11:35.000Z,499.6373291015625
2023-05-05T01:12:37.000Z,494.3658447265625
2023-05-05T01:13:39.000Z,491.34075927734375
2023-05-05T01:14:41.000Z,488.40020751953125
2023-05-05T01:15:44.000Z,488.07269287109375
2023-05-05T01:16:46.000Z,489.1059875488281
2023-05-05T01:17:48.000Z,491.4914245605469
2023-05-05T01:18:50.000Z,492.2650451660156
2023-05-05T01:19:52.000Z,493.6913757324219
2023-05-05T01:20:54.000Z,494.0162658691406
2023-05-05T01:21:57.000Z,494.7646179199219
2023-05-05T01:22:59.000Z,493.0762023925781
2023-05-05T01:24:01.000Z,495.74603271484375
2023-05-05T01:25:03.000Z,495.18646240234375
2023-05-05T01:26:05.000Z,496.9875183105469
2023-05-05T01:27:07.000Z,495.1174621582031
2023-05-05T01:28:10.000Z,492.4197998046875
2023-05-05T01:29:12.000Z,494.8695373535156
2023-05-05T01:30:14.000Z,495.90997314453125
2023-05-05T01:31:16.000Z,495.01788330078125
2023-05-05T01:32:18.000Z,496.493408203125
2023-05-05T01:33:20.000Z,497.30755615234375
2023-05-05T01:34:22.000Z,498.0936279296875
2023-05-05T01:35:25.000Z,491.4914245605469
2023-05-05T01:36:27.000Z,487.7143859863281
2023-05-05T01:37:29.000Z,486.4817199707031
2023-05-05T01:38:31.000Z,485.8520812988281
2023-05-05T01:39:33.000Z,486.38916015625
2023-05-05T01:40:35.000Z,486.7342224121094
2023-05-05T01:41:38.000Z,488.5581359863281
2023-05-05T01:42:40.000Z,494.46331787109375
2023-05-05T01:43:42.000Z,496.7860412597656
2023-05-05T01:44:44.000Z,496.5519104003906
2023-05-05T01:45:46.000Z,494.0068664550781
2023-05-05T01:46:48.000Z,497.15386962890625
2023-05-05T01:47:50.000Z,502.7754821777344
2023-05-05T01:48:53.000Z,515.1131591796875
2023-05-05T01:49:55.000Z,522.93603515625
2023-05-05T01:50:57.000Z,526.9446411132812
2023-05-05T01:51:59.000Z,529.2398071289062
2023-05-05T01:53:01.000Z,530.8829956054688
2023-05-05T01:54:03.000Z,527.057861328125
2023-05-05T01:55:06.000Z,520.5795288085938
2023-05-05T01:56:08.000Z,520.2564086914062
2023-05-05T01:57:10.000Z,519.2946166992188
2023-05-05T01:58:12.000Z,520.5167846679688
2023-05-05T01:59:14.000Z,520.7442626953125
2023-05-05T02:00:16.000Z,519.50244140625
2023-05-05T02:01:19.000Z,519.2710571289062
2023-05-05T02:02:21.000Z,521.3974609375
2023-05-05T02:03:23.000Z,524.4374389648438
2023-05-05T02:04:25.000Z,526.4339599609375
2023-05-05T02:05:27.000Z,525.7083740234375
2023-05-05T02:06:29.000Z,524.450439453125
2023-05-05T02:07:31.000Z,523.057861328125
2023-05-05T02:08:34.000Z,521.90283203125
2023-05-05T02:09:36.000Z,521.5050048828125
2023-05-05T02:10:38.000Z,521.5133056640625
2023-05-05T02:11:40.000Z,523.5875854492188
2023-05-05T02:12:42.000Z,523.371337890625
2023-05-05T02:13:44.000Z,526.0597534179688
2023-05-05T02:14:46.000Z,531.6074829101562
2023-05-05T02:15:49.000Z,535.3627319335938
2023-05-05T02:16:51.000Z,535.1083984375
2023-05-05T02:17:53.000Z,533.9754638671875
2023-05-05T02:18:55.000Z,534.2715454101562
2023-05-05T02:19:57.000Z,532.9755859375
2023-05-05T02:20:59.000Z,533.1031494140625
2023-05-05T02:22:02.000Z,529.7970581054688
2023-05-05T02:23:04.000Z,528.5315551757812
2023-05-05T02:24:06.000Z,526.9478149414062
2023-05-05T02:25:08.000Z,527.9005126953125
2023-05-05T02:26:10.000Z,530.2974853515625
2023-05-05T02:27:12.000Z,530.9833374023438
2023-05-05T02:28:14.000Z,528.5491333007812
2023-05-05T02:29:17.000Z,527.8770141601562
2023-05-05T02:30:19.000Z,532.2196044921875
2023-05-05T02:31:21.000Z,532.5064086914062
2023-05-05T02:32:23.000Z,535.7543334960938
2023-05-05T02:33:25.000Z,539.4224243164062
2023-05-05T02:34:27.000Z,542.1429443359375
2023-05-05T02:35:29.000Z,544.1835327148438
2023-05-05T02:36:32.000Z,545.5228881835938
2023-05-05T02:37:34.000Z,547.953125
2023-05-05T02:38:36.000Z,553.3056640625
2023-05-05T02:39:38.000Z,554.5606689453125
2023-05-05T02:40:40.000Z,553.6607055664062
2023-05-05T02:41:42.000Z,544.0819091796875
2023-05-05T02:42:45.000Z,535.60595703125
2023-05-05T02:43:47.000Z,535.6817016601562
2023-05-05T02:44:49.000Z,537.8720703125
2023-05-05T02:45:51.000Z,543.7162475585938
2023-05-05T02:46:53.000Z,548.1014404296875
2023-05-05T02:47:55.000Z,551.607421875
2023-05-05T02:48:57.000Z,557.1893920898438
2023-05-05T02:50:00.000Z,562.4019775390625
2023-05-05T02:51:02.000Z,565.861083984375
2023-05-05T02:52:04.000Z,565.4682006835938
2023-05-05T02:53:06.000Z,568.885986328125
2023-05-05T02:54:08.000Z,573.6508178710938
2023-05-05T02:55:10.000Z,576.3281860351562
2023-05-05T02:56:13.000Z,581.1773071289062
2023-05-05T02:57:15.000Z,584.0524291992188
2023-05-05T02:58:17.000Z,586.410888671875
2023-05-05T02:59:19.000Z,586.9802856445312
2023-05-05T03:00:21.000Z,582.4511108398438
2023-05-05T03:01:23.000Z,578.9228515625
2023-05-05T03:02:25.000Z,577.594970703125
2023-05-05T03:03:28.000Z,575.5870971679688
2023-05-05T03:04:30.000Z,577.726806640625
2023-05-05T03:05:32.000Z,581.29443359375
2023-05-05T03:06:34.000Z,580.2640380859375
2023-05-05T03:07:36.000Z,580.7766723632812
2023-05-05T03:08:38.000Z,579.4466552734375
2023-05-05T03:09:40.000Z,575.0300903320312
2023-05-05T03:10:43.000Z,569.0126953125
2023-05-05T03:11:45.000Z,563.9156494140625
2023-05-05T03:12:47.000Z,560.9488525390625
2023-05-05T03:13:49.000Z,558.10791015625
2023-05-05T03:14:51.000Z,556.6801147460938
2023-05-05T03:15:53.000Z,552.9564819335938
2023-05-05T03:16:56.000Z,551.9200439453125
2023-05-05T03:17:58.000Z,550.8148193359375
2023-05-05T03:19:00.000Z,549.8046264648438
2023-05-05T03:20:02.000Z,548.3637084960938
2023-05-05T03:21:04.000Z,545.3787841796875
2023-05-05T03:22:06.000Z,544.6828002929688
2023-05-05T03:23:08.000Z,542.1834716796875
2023-05-05T03:24:10.000Z,538.8994750976562
2023-05-05T03:25:13.000Z,537.4765014648438
2023-05-05T03:26:15.000Z,534.7637329101562
2023-05-05T03:27:17.000Z,532.429443359375
2023-05-05T03:28:19.000Z,529.7486572265625
2023-05-05T03:29:21.000Z,527.0923461914062
2023-05-05T03:30:23.000Z,523.90576171875
2023-05-05T03:31:26.000Z,525.076171875
2023-05-05T03:32:28.000Z,526.3280639648438
2023-05-05T03:33:30.000Z,526.9473876953125
2023-05-05T03:34:32.000Z,528.34521484375
2023-05-05T03:35:34.000Z,526.4287719726562
2023-05-05T03:36:36.000Z,521.1843872070312
2023-05-05T03:37:38.000Z,519.64404296875
2023-05-05T03:38:41.000Z,518.9519653320312
2023-05-05T03:39:43.000Z,520.04638671875
2023-05-05T03:40:45.000Z,520.3079223632812
2023-05-05T03:41:47.000Z,518.5609741210938
2023-05-05T03:42:49.000Z,520.02490234375
2023-05-05T03:43:51.000Z,519.3984375
2023-05-05T03:44:54.000Z,520.343505859375
2023-05-05T03:45:56.000Z,521.3648071289062
2023-05-05T03:46:58.000Z,518.0654296875
2023-05-05T03:48:00.000Z,518.4270629882812
2023-05-05T03:49:02.000Z,519.9290771484375
2023-05-05T03:50:04.000Z,522.6611938476562
2023-05-05T03:51:06.000Z,522.4454956054688
2023-05-05T03:52:09.000Z,523.4315185546875
2023-05-05T03:53:11.000Z,520.9354858398438
2023-05-05T03:54:13.000Z,524.3848266601562
2023-05-05T03:55:15.000Z,526.0390014648438
2023-05-05T03:56:17.000Z,526.5482788085938
2023-05-05T03:57:19.000Z,528.72998046875
2023-05-05T03:58:21.000Z,530.086669921875
2023-05-05T03:59:24.000Z,531.925048828125
2023-05-05T04:00:26.000Z,531.7664794921875
2023-05-05T04:01:28.000Z,533.7725219726562
2023-05-05T04:02:30.000Z,533.3560180664062
2023-05-05T04:03:32.000Z,530.5006103515625
2023-05-05T04:04:34.000Z,529.917724609375
2023-05-05T04:05:36.000Z,529.4839477539062
2023-05-05T04:06:38.000Z,529.76416015625
2023-05-05T04:07:41.000Z,528.9772338867188
2023-05-05T04:08:43.000Z,531.10546875
2023-05-05T04:09:45.000Z,531.596435546875
2023-05-05T04:10:47.000Z,532.1859741210938
2023-05-05T04:11:49.000Z,530.945556640625
2023-05-05T04:12:51.000Z,531.0875854492188
2023-05-05T04:13:53.000Z,529.4663696289062
2023-05-05T04:14:56.000Z,532.2132568359375
2023-05-05T04:15:58.000Z,533.9280395507812
2023-05-05T04:17:00.000Z,535.3567504882812
2023-05-05T04:18:02.000Z,533.6466064453125
2023-05-05T04:19:04.000Z,533.4021606445312
2023-05-05T04:20:06.000Z,533.9254150390625
2023-05-05T04:21:08.000Z,531.3809814453125
2023-05-05T04:22:11.000Z,529.81640625
2023-05-05T04:23:13.000Z,528.4313354492188
2023-05-05T04:24:15.000Z,524.984375
2023-05-05T04:25:17.000Z,523.6834716796875
2023-05-05T04:26:19.000Z,519.0846557617188
2023-05-05T04:27:21.000Z,518.044189453125
2023-05-05T04:28:24.000Z,516.5698852539062
2023-05-05T04:29:26.000Z,510.1005554199219
2023-05-05T04:30:28.000Z,510.5432434082031
2023-05-05T04:31:30.000Z,510.2932434082031
2023-05-05T04:32:32.000Z,508.90191650390625
2023-05-05T04:33:34.000Z,506.4662780761719
2023-05-05T04:34:37.000Z,505.9703674316406
2023-05-05T04:35:39.000Z,505.49346923828125
2023-05-05T04:36:41.000Z,505.66375732421875
2023-05-05T04:37:43.000Z,501.8783874511719
2023-05-05T04:38:45.000Z,502.6918029785156
2023-05-05T04:39:47.000Z,500.58306884765625
2023-05-05T04:40:49.000Z,499.9433288574219
2023-05-05T04:41:52.000Z,498.7746887207031
2023-05-05T04:42:54.000Z,497.1452941894531
2023-05-05T04:43:56.000Z,498.439208984375
2023-05-05T04:44:58.000Z,497.76824951171875
2023-05-05T04:46:00.000Z,497.89129638671875
2023-05-05T04:47:02.000Z,498.2590026855469
2023-05-05T04:48:04.000Z,499.6578674316406
2023-05-05T04:49:07.000Z,498.5242614746094
2023-05-05T04:50:09.000Z,499.6837158203125
2023-05-05T04:51:11.000Z,499.0773010253906
2023-05-05T04:52:13.000Z,498.7547607421875
2023-05-05T04:53:15.000Z,498.21240234375
2023-05-05T04:54:17.000Z,498.1347961425781
2023-05-05T04:55:19.000Z,497.6149597167969
2023-05-05T04:56:22.000Z,497.5036315917969
2023-05-05T04:57:24.000Z,497.4667663574219
2023-05-05T04:58:26.000Z,495.45794677734375
2023-05-05T04:59:28.000Z,494.20477294921875
2023-05-05T05:00:30.000Z,490.9342956542969
2023-05-05T05:01:32.000Z,490.3665771484375
2023-05-05T05:02:35.000Z,486.449462890625
2023-05-05T05:03:37.000Z,484.44329833984375
2023-05-05T05:04:39.000Z,482.9740905761719
2023-05-05T05:05:41.000Z,478.59722900390625
2023-05-05T05:06:43.000Z,475.1208801269531
2023-05-05T05:07:45.000Z,472.80023193359375
2023-05-05T05:08:48.000Z,472.89471435546875
2023-05-05T05:09:50.000Z,474.3418884277344
2023-05-05T05:10:52.000Z,475.0775451660156
2023-05-05T05:11:54.000Z,476.9929504394531
2023-05-05T05:12:56.000Z,478.6103210449219
2023-05-05T05:13:58.000Z,476.26654052734375
2023-05-05T05:15:00.000Z,473.6119079589844
2023-05-05T05:16:03.000Z,470.7363586425781
2023-05-05T05:17:05.000Z,466.0760803222656
2023-05-05T05:18:07.000Z,462.4588317871094
2023-05-05T05:19:09.000Z,460.5624694824219
2023-05-05T05:20:11.000Z,460.58111572265625
2023-05-05T05:21:13.000Z,460.263671875
2023-05-05T05:22:16.000Z,460.50537109375
2023-05-05T05:23:18.000Z,459.6164245605469
2023-05-05T05:24:20.000Z,459.6988525390625
2023-05-05T05:25:22.000Z,458.83026123046875
2023-05-05T05:26:24.000Z,458.6786193847656
2023-05-05T05:27:27.000Z,459.2007141113281
2023-05-05T05:28:29.000Z,455.3064270019531
2023-05-05T05:29:31.000Z,452.12127685546875
2023-05-05T05:30:33.000Z,450.0703430175781
2023-05-05T05:31:35.000Z,448.1978759765625
2023-05-05T05:32:37.000Z,448.77313232421875
2023-05-05T05:33:39.000Z,448.6373291015625
2023-05-05T05:34:42.000Z,446.3882751464844
2023-05-05T05:35:44.000Z,445.6741027832031
2023-05-05T05:36:46.000Z,444.4066467285156
2023-05-05T05:37:48.000Z,443.9551086425781
2023-05-05T05:38:50.000Z,442.7724609375
2023-05-05T05:39:52.000Z,439.1578063964844
2023-05-05T05:40:54.000Z,440.9286804199219
2023-05-05T05:41:57.000Z,437.994140625
2023-05-05T05:42:59.000Z,435.93798828125
2023-05-05T05:44:01.000Z,436.47235107421875
2023-05-05T05:45:03.000Z,435.5783386230469
2023-05-05T05:46:05.000Z,435.8106994628906
2023-05-05T05:47:08.000Z,433.95849609375
2023-05-05T05:48:10.000Z,433.79461669921875
2023-05-05T05:49:12.000Z,433.83184814453125
2023-05-05T05:50:14.000Z,432.97412109375
2023-05-05T05:51:16.000Z,430.8211364746094
2023-05-05T05:52:18.000Z,430.5146789550781
2023-05-05T05:53:20.000Z,429.6579284667969
2023-05-05T05:54:23.000Z,430.24298095703125
2023-05-05T05:55:25.000Z,430.3019714355469
2023-05-05T05:56:27.000Z,428.0905456542969
2023-05-05T05:57:29.000Z,428.9464416503906
2023-05-05T05:58:31.000Z,431.22845458984375
2023-05-05T05:59:33.000Z,432.7489318847656
2023-05-05T06:00:35.000Z,431.2221374511719
2023-05-05T06:01:38.000Z,432.1102294921875
2023-05-05T06:02:40.000Z,430.1967468261719
2023-05-05T06:03:42.000Z,430.8327331542969
2023-05-05T06:04:44.000Z,431.1353454589844
2023-05-05T06:05:46.000Z,429.3746032714844
2023-05-05T06:06:48.000Z,427.6189880371094
2023-05-05T06:07:50.000Z,427.60137939453125
2023-05-05T06:08:53.000Z,428.6326904296875
2023-05-05T06:09:55.000Z,430.009765625
2023-05-05T06:10:57.000Z,431.1020812988281
2023-05-05T06:11:59.000Z,432.2862548828125
2023-05-05T06:13:01.000Z,429.8736572265625
2023-05-05T06:14:03.000Z,431.0177917480469
2023-05-05T06:15:06.000Z,430.5225830078125
2023-05-05T06:16:08.000Z,430.804931640625
2023-05-05T06:17:10.000Z,433.0282897949219
2023-05-05T06:18:12.000Z,434.305419921875
2023-05-05T06:19:14.000Z,433.1922912597656
2023-05-05T06:20:16.000Z,433.46221923828125
2023-05-05T06:21:18.000Z,431.04339599609375
2023-05-05T06:22:21.000Z,432.1678161621094
2023-05-05T06:23:23.000Z,432.9615173339844
2023-05-05T06:24:25.000Z,431.6217041015625
2023-05-05T06:25:27.000Z,431.0862731933594
2023-05-05T06:26:29.000Z,432.45849609375
2023-05-05T06:27:31.000Z,431.7189636230469
2023-05-05T06:28:33.000Z,432.1651916503906
2023-05-05T06:29:36.000Z,429.5316162109375
2023-05-05T06:30:38.000Z,430.98858642578125
2023-05-05T06:31:40.000Z,430.47064208984375
2023-05-05T06:32:42.000Z,429.85638427734375
2023-05-05T06:33:44.000Z,427.6471862792969
2023-05-05T06:34:46.000Z,424.47100830078125
2023-05-05T06:35:48.000Z,421.68267822265625
2023-05-05T06:36:51.000Z,419.44952392578125
2023-05-05T06:37:53.000Z,419.0210876464844
2023-05-05T06:38:55.000Z,420.6131896972656
2023-05-05T06:39:57.000Z,421.1292419433594
2023-05-05T06:40:59.000Z,424.0052185058594
2023-05-05T06:42:01.000Z,421.3258972167969
2023-05-05T06:43:04.000Z,420.8035583496094
2023-05-05T06:44:06.000Z,420.4254150390625
2023-05-05T06:45:08.000Z,420.1550598144531
2023-05-05T06:46:10.000Z,421.703125
2023-05-05T06:47:12.000Z,421.38909912109375
2023-05-05T06:48:14.000Z,421.52716064453125
2023-05-05T06:49:16.000Z,422.8670654296875
2023-05-05T06:50:19.000Z,420.9395751953125
2023-05-05T06:51:21.000Z,419.9966125488281
2023-05-05T06:52:23.000Z,418.4210205078125
2023-05-05T06:53:25.000Z,418.3409729003906
2023-05-05T06:54:27.000Z,418.4365234375
2023-05-05T06:55:29.000Z,417.8428955078125
2023-05-05T06:56:31.000Z,417.51141357421875
2023-05-05T06:57:34.000Z,417.9604187011719
2023-05-05T06:58:36.000Z,416.5157165527344
2023-05-05T06:59:38.000Z,415.07720947265625
2023-05-05T07:00:40.000Z,414.4169616699219
2023-05-05T07:01:42.000Z,414.7336120605469
2023-05-05T07:02:44.000Z,414.35174560546875
2023-05-05T07:03:47.000Z,414.2356872558594
2023-05-05T07:04:49.000Z,413.82025146484375
2023-05-05T07:05:51.000Z,412.80413818359375
2023-05-05T07:06:53.000Z,412.83270263671875
2023-05-05T07:07:55.000Z,413.7645568847656
2023-05-05T07:08:57.000Z,414.9273376464844
2023-05-05T07:10:00.000Z,416.34320068359375
2023-05-05T07:11:02.000Z,418.2679443359375
2023-05-05T07:12:04.000Z,415.8984069824219
2023-05-05T07:13:06.000Z,416.7006530761719
2023-05-05T07:14:08.000Z,416.2513427734375
2023-05-05T07:15:10.000Z,415.443359375
2023-05-05T07:16:12.000Z,413.93585205078125
2023-05-05T07:17:15.000Z,415.1748962402344
2023-05-05T07:18:17.000Z,416.20782470703125
2023-05-05T07:19:19.000Z,416.28033447265625
2023-05-05T07:20:21.000Z,417.4448547363281
2023-05-05T07:21:23.000Z,418.1300048828125
2023-05-05T07:22:25.000Z,419.6715087890625
2023-05-05T07:23:27.000Z,417.52337646484375
2023-05-05T07:24:30.000Z,417.7089538574219
2023-05-05T07:25:32.000Z,417.8819580078125
2023-05-05T07:26:34.000Z,417.6668395996094
2023-05-05T07:27:36.000Z,417.1882629394531
2023-05-05T07:28:38.000Z,416.7848815917969
2023-05-05T07:29:40.000Z,417.5748596191406
2023-05-05T07:30:42.000Z,417.1081848144531
2023-05-05T07:31:45.000Z,418.0584411621094
2023-05-05T07:32:47.000Z,417.893798828125
2023-05-05T07:33:49.000Z,419.501708984375
2023-05-05T07:34:51.000Z,419.76141357421875
2023-05-05T07:35:53.000Z,416.8456115722656
2023-05-05T07:36:55.000Z,416.7974548339844
2023-05-05T07:37:57.000Z,413.7925109863281
2023-05-05T07:39:00.000Z,415.2010803222656
2023-05-05T07:40:02.000Z,415.5488586425781
2023-05-05T07:41:04.000Z,417.2591857910156
2023-05-05T07:42:06.000Z,417.2440185546875
2023-05-05T07:43:08.000Z,417.569580078125
2023-05-05T07:44:10.000Z,419.1874694824219
2023-05-05T07:45:12.000Z,419.7735290527344
2023-05-05T07:46:15.000Z,418.9581604003906
2023-05-05T07:47:17.000Z,418.6777648925781
2023-05-05T07:48:19.000Z,415.8172302246094
2023-05-05T07:49:21.000Z,416.28619384765625
2023-05-05T07:50:23.000Z,415.0793762207031
2023-05-05T07:51:25.000Z,413.2254638671875
2023-05-05T07:52:28.000Z,414.84710693359375
2023-05-05T07:53:30.000Z,414.0773010253906
2023-05-05T07:54:32.000Z,410.8548583984375
2023-05-05T07:55:34.000Z,406.6576843261719
2023-05-05T07:56:36.000Z,406.060791015625
2023-05-05T07:57:38.000Z,408.4035339355469
2023-05-05T07:58:41.000Z,408.83966064453125
2023-05-05T07:59:43.000Z,406.64727783203125
2023-05-05T08:00:45.000Z,407.6070556640625
2023-05-05T08:01:47.000Z,409.3646240234375
2023-05-05T08:02:49.000Z,410.18359375
2023-05-05T08:03:51.000Z,410.83642578125
2023-05-05T08:04:53.000Z,412.8755798339844
2023-05-05T08:05:56.000Z,411.9124755859375
2023-05-05T08:06:58.000Z,409.262451171875
2023-05-05T08:08:00.000Z,409.01141357421875
2023-05-05T08:09:02.000Z,411.18902587890625
2023-05-05T08:10:04.000Z,408.9214172363281
2023-05-05T08:11:06.000Z,409.2198486328125
2023-05-05T08:12:08.000Z,411.37054443359375
2023-05-05T08:13:11.000Z,411.17193603515625
2023-05-05T08:14:13.000Z,411.9839172363281
2023-05-05T08:15:15.000Z,411.2452697753906
2023-05-05T08:16:17.000Z,411.3877868652344
2023-05-05T08:17:19.000Z,411.3564147949219
2023-05-05T08:18:21.000Z,412.0008850097656
2023-05-05T08:19:24.000Z,411.61090087890625
2023-05-05T08:20:26.000Z,409.96746826171875
2023-05-05T08:21:28.000Z,409.8549499511719
2023-05-05T08:22:30.000Z,409.03619384765625
2023-05-05T08:23:32.000Z,409.6253967285156
2023-05-05T08:24:34.000Z,407.2851257324219
2023-05-05T08:25:36.000Z,406.623779296875
2023-05-05T08:26:39.000Z,406.8887023925781
2023-05-05T08:27:41.000Z,406.1064453125
2023-05-05T08:28:43.000Z,405.4185791015625
2023-05-05T08:29:45.000Z,403.1236877441406
2023-05-05T08:30:47.000Z,404.6921081542969
2023-05-05T08:31:49.000Z,405.2939147949219
2023-05-05T08:32:51.000Z,405.589599609375
2023-05-05T08:33:54.000Z,405.3995361328125
2023-05-05T08:34:56.000Z,405.2408447265625
2023-05-05T08:35:58.000Z,407.0506591796875
2023-05-05T08:37:00.000Z,407.1011047363281
2023-05-05T08:38:02.000Z,409.2761535644531
2023-05-05T08:39:04.000Z,408.0926818847656
2023-05-05T08:40:07.000Z,406.0860595703125
2023-05-05T08:41:09.000Z,404.0101623535156
2023-05-05T08:42:11.000Z,403.2029113769531
2023-05-05T08:43:13.000Z,405.9195251464844
2023-05-05T08:44:15.000Z,407.58184814453125
2023-05-05T08:45:17.000Z,407.45703125
2023-05-05T08:46:19.000Z,403.35345458984375
2023-05-05T08:47:22.000Z,402.9112548828125
2023-05-05T08:48:24.000Z,402.3414611816406
2023-05-05T08:49:26.000Z,401.841064453125
2023-05-05T08:50:28.000Z,400.1730041503906
2023-05-05T08:51:30.000Z,397.7108154296875
2023-05-05T08:52:32.000Z,398.6099853515625
2023-05-05T08:53:35.000Z,399.1387939453125
2023-05-05T08:54:37.000Z,398.1556091308594
2023-05-05T08:55:39.000Z,395.7564392089844
2023-05-05T08:56:41.000Z,393.6620178222656
2023-05-05T08:57:43.000Z,395.04547119140625
2023-05-05T08:58:45.000Z,395.0545349121094
2023-05-05T08:59:47.000Z,397.9801025390625
2023-05-05T09:00:50.000Z,394.89044189453125
2023-05-05T09:01:52.000Z,396.9815979003906
2023-05-05T09:02:54.000Z,400.863037109375
2023-05-05T09:03:56.000Z,401.839111328125
2023-05-05T09:04:58.000Z,401.3034362792969
2023-05-05T09:06:00.000Z,398.6747131347656
2023-05-05T09:07:03.000Z,398.662841796875
2023-05-05T09:08:05.000Z,399.6796569824219
2023-05-05T09:09:07.000Z,399.7169189453125
2023-05-05T09:10:09.000Z,400.12261962890625
2023-05-05T09:11:11.000Z,398.3907470703125
2023-05-05T09:12:13.000Z,399.3355712890625
2023-05-05T09:13:16.000Z,399.5276794433594
2023-05-05T09:14:18.000Z,398.4171142578125
2023-05-05T09:15:20.000Z,398.0034484863281
2023-05-05T09:16:22.000Z,397.9836730957031
2023-05-05T09:17:24.000Z,396.4520263671875
2023-05-05T09:18:26.000Z,397.5212707519531
2023-05-05T09:19:29.000Z,395.0297546386719
2023-05-05T09:20:31.000Z,393.4779052734375
2023-05-05T09:21:33.000Z,392.15582275390625
2023-05-05T09:22:35.000Z,393.2671813964844
2023-05-05T09:23:37.000Z,394.431640625
2023-05-05T09:24:39.000Z,394.1470642089844
2023-05-05T09:25:42.000Z,389.7174377441406
2023-05-05T09:26:44.000Z,392.47802734375
2023-05-05T09:27:46.000Z,393.9510803222656
2023-05-05T09:28:48.000Z,397.51214599609375
2023-05-05T09:29:50.000Z,398.0707702636719
2023-05-05T09:30:52.000Z,395.0024719238281
2023-05-05T09:31:54.000Z,395.2165222167969
2023-05-05T09:32:57.000Z,394.8612976074219
2023-05-05T09:33:59.000Z,391.6977844238281
2023-05-05T09:35:01.000Z,389.20916748046875
2023-05-05T09:36:03.000Z,390.44580078125
2023-05-05T09:37:05.000Z,389.0998229980469
2023-05-05T09:38:08.000Z,390.5159912109375
2023-05-05T09:39:10.000Z,392.3158874511719
2023-05-05T09:40:12.000Z,395.4772644042969